Ana Sayfa
METAR-TAF:

METAR-TAF

Havaalanları :

Sandakan, Malezya

Enlem: 05-54N, Boylam: 118-04E, yükseklik: 12 m

Güncel hava durumu gözlemi

Rapor saat 02:00 UTC de 43 dakika önce yapıldı.
Rüzgar kuzey/kuzeydoğudan 6 kt, kuzey/kuzeybatı ve doğu arasında değişken
Sıcaklık 30°C
Nem 70%
Basınç 1013 hPa
Görüş mesafesi 10 km veya daha fazla
1600 ft yükseklikte az bulutlu

METAR: WBKS 020200Z 03006KT 340V090 9999 FEW016 30/24 Q1013

Saat: 10:43 (02:43 UTC)

Tahmin

Rapor saat 23:00 UTC de 3 saat ve 43 dakika önce yapıldı.
Ayın 02'si saat 00 UTC'den ayın 03'si saat 00 UTC'ye kadar geçerli Tahmin
Rüzgar kuzeydoğudan 8 kt
Görüş mesafesi 10 km veya daha fazla
1500 ft yükseklikte az bulutlu
Dönüşüyor
ayın 02'si saat 13 UTC'den ayın 02'si saat 15 UTC'ye kadar
Rüzgar değişken yönden 3 kt

TAF: WBKS 012300Z 0200/0300 04008KT 9999 FEW015 BECMG 0213/0215 VRB03KT

4.000'den fazla havaalanı için hava durumu gözlemleri ve tahminleri (METAR ve TAF raporları).

Kullanılabilir istasyonlar harita üzerinde sarı ve kırmızı noktalarla gösterilir.

İstasyonun adını görmek için fareyi noktanın üzerinde gezdirin.

Sonrasında hava gözlem ve tahminlerini görmek için tıklayın.

Haritayı değiştirmek için: yaklaştırmak için siyah artı işaretli yeşil düğmeye ve uzaklaştırmak için de eksi işaretli düğmeye hızla tıklayın; bitişik haritalar için yeşil okları kullanın.


METAR-TAF: